Maurice, Louisiana
Current Conditions -  °F | °C
As of 1:50 AM on Tuesday 21 Oct 2014 (Local Time) from KIYA Reporting Station
Clear Clear  
Wind Chill: 56°   Ceiling: Unl
Heat Index: 56°   Visibility: 10mi
Dew Point: 54°   Wind: 0mph
Humidity: 92%   Direction: NA
Pressure: 30.01"   Gusts: NA
Location:  30.11°N, 92.12°W
Report Text: KIYA 210650Z AUTO 00000KT 10SM CLR 14/12 A3001 RMK AO2 T01360124
Loading
Personal Weather Stations






























Interactive Weather Map
Tropical Storm Tracking
New forecast layout! Learn more

10-Day Weather Forecast

Advertisements
Track Severe Weather on mobile